createdAt,value
2023-03-26T00:00:02.348Z,4.78
2023-03-26T00:02:29.424Z,5.10
2023-03-26T00:04:57.847Z,5.35
2023-03-26T00:07:24.842Z,4.70
2023-03-26T00:09:51.844Z,5.03
2023-03-26T00:12:18.839Z,4.28
2023-03-26T00:14:45.824Z,4.70
2023-03-26T00:17:12.725Z,4.30
2023-03-26T00:19:39.672Z,4.75
2023-03-26T00:22:08.143Z,4.80
2023-03-26T00:24:35.184Z,4.07
2023-03-26T00:27:02.115Z,5.90
2023-03-26T00:29:29.105Z,5.65
2023-03-26T00:31:56.160Z,5.38
2023-03-26T00:34:23.153Z,5.90
2023-03-26T00:36:50.179Z,5.43
2023-03-26T00:39:18.501Z,5.65
2023-03-26T00:41:45.441Z,5.80
2023-03-26T00:44:13.458Z,6.22
2023-03-26T00:46:40.540Z,5.28
2023-03-26T00:49:07.673Z,5.43
2023-03-26T00:51:34.697Z,5.03
2023-03-26T00:54:01.697Z,4.55
2023-03-26T00:56:30.095Z,4.40
2023-03-26T00:58:57.127Z,4.32
2023-03-26T01:01:26.187Z,4.55
2023-03-26T01:04:06.716Z,4.60
2023-03-26T01:06:34.786Z,4.28
2023-03-26T01:09:04.764Z,4.75
2023-03-26T01:11:35.467Z,4.00
2023-03-26T01:14:08.528Z,4.75
2023-03-26T01:16:39.148Z,4.78
2023-03-26T01:19:09.504Z,4.28
2023-03-26T01:21:37.544Z,4.60
2023-03-26T01:24:07.326Z,5.45
2023-03-26T01:27:01.134Z,4.07
2023-03-26T01:29:33.264Z,4.70
2023-03-26T01:32:13.581Z,4.45
2023-03-26T01:34:50.689Z,4.00
2023-03-26T01:37:23.749Z,4.25
2023-03-26T01:39:56.164Z,4.43
2023-03-26T01:42:34.110Z,5.07
2023-03-26T01:45:07.347Z,4.85
2023-03-26T01:47:35.983Z,4.80
2023-03-26T01:50:03.189Z,4.97
2023-03-26T01:52:30.240Z,4.38
2023-03-26T01:54:59.136Z,4.22
2023-03-26T01:57:41.586Z,4.50
2023-03-26T02:00:21.626Z,4.57
2023-03-26T02:03:07.654Z,5.50
2023-03-26T02:05:41.340Z,5.30
2023-03-26T02:08:23.674Z,4.30
2023-03-26T02:10:57.617Z,4.07
2023-03-26T02:13:36.881Z,4.10
2023-03-26T02:16:06.788Z,4.43
2023-03-26T02:18:41.559Z,4.45
2023-03-26T02:21:10.352Z,3.45
2023-03-26T02:23:43.573Z,3.88
2023-03-26T02:26:13.132Z,4.28
2023-03-26T02:28:47.549Z,3.78
2023-03-26T02:31:15.285Z,4.43
2023-03-26T02:33:49.562Z,4.15
2023-03-26T02:36:16.607Z,2.60
2023-03-26T02:38:43.733Z,5.13
2023-03-26T02:41:22.620Z,3.97
2023-03-26T02:43:49.846Z,3.80
2023-03-26T02:46:23.668Z,4.28
2023-03-26T02:48:50.738Z,3.65
2023-03-26T02:51:24.565Z,4.10
2023-03-26T02:53:51.593Z,4.80
2023-03-26T02:56:26.538Z,4.30
2023-03-26T03:01:26.595Z,3.97
2023-03-26T03:03:53.582Z,4.28
2023-03-26T03:06:26.584Z,4.63
2023-03-26T03:08:53.582Z,4.78
2023-03-26T03:11:28.570Z,4.05
2023-03-26T03:16:22.327Z,4.22
2023-03-26T03:18:56.919Z,4.45
2023-03-26T03:21:33.569Z,4.10
2023-03-26T03:24:06.611Z,4.00
2023-03-26T03:26:34.927Z,3.97
2023-03-26T03:29:08.554Z,3.65
2023-03-26T03:31:35.498Z,4.07
2023-03-26T03:34:09.557Z,4.28
2023-03-26T03:36:36.560Z,4.23
2023-03-26T03:39:10.592Z,4.15
2023-03-26T03:41:38.909Z,4.37
2023-03-26T03:44:12.560Z,4.00
2023-03-26T03:46:39.577Z,3.75
2023-03-26T03:49:13.590Z,4.30
2023-03-26T03:51:40.561Z,3.20
2023-03-26T03:54:07.545Z,4.25
2023-03-26T03:56:40.600Z,3.85
2023-03-26T03:59:08.990Z,4.03
2023-03-26T04:01:42.558Z,3.92
2023-03-26T04:04:09.769Z,4.20
2023-03-26T04:06:43.624Z,4.65
2023-03-26T04:09:10.563Z,4.32
2023-03-26T04:11:37.492Z,3.88
2023-03-26T04:14:10.559Z,3.60
2023-03-26T04:16:38.952Z,3.33
2023-03-26T04:19:12.580Z,4.18
2023-03-26T04:21:39.529Z,4.10
2023-03-26T04:24:07.016Z,2.92
2023-03-26T04:26:40.595Z,3.40
2023-03-26T04:29:09.239Z,4.00
2023-03-26T04:31:42.634Z,4.18
2023-03-26T04:34:21.875Z,3.63
2023-03-26T04:36:55.571Z,3.83
2023-03-26T04:39:22.540Z,3.60
2023-03-26T04:41:49.511Z,3.08
2023-03-26T04:44:22.655Z,3.88
2023-03-26T04:46:49.661Z,3.55
2023-03-26T04:49:24.593Z,3.03
2023-03-26T04:54:22.360Z,3.10
2023-03-26T04:56:59.603Z,2.38
2023-03-26T04:59:28.594Z,2.75
2023-03-26T05:02:02.630Z,2.13
2023-03-26T05:04:31.303Z,2.63
2023-03-26T05:07:05.591Z,1.95
2023-03-26T05:09:32.595Z,2.70
2023-03-26T05:11:59.534Z,2.65
2023-03-26T05:14:32.614Z,2.53
2023-03-26T05:17:00.406Z,2.90
2023-03-26T05:19:33.569Z,2.50
2023-03-26T05:22:01.991Z,2.58
2023-03-26T05:24:35.563Z,2.90
2023-03-26T05:27:02.528Z,2.70
2023-03-26T05:29:29.584Z,2.92
2023-03-26T05:32:03.558Z,3.35
2023-03-26T05:34:30.520Z,2.60
2023-03-26T05:36:57.507Z,2.30
2023-03-26T05:39:32.600Z,2.28
2023-03-26T05:41:59.802Z,2.53
2023-03-26T05:44:33.573Z,2.83
2023-03-26T05:47:00.605Z,2.30
2023-03-26T05:49:27.558Z,2.20
2023-03-26T05:52:00.622Z,2.17
2023-03-26T05:54:29.152Z,2.30
2023-03-26T05:57:02.756Z,2.20
2023-03-26T05:59:30.082Z,2.28
2023-03-26T06:02:09.612Z,1.70
2023-03-26T06:04:36.692Z,2.40
2023-03-26T06:07:10.660Z,1.90
2023-03-26T06:09:40.130Z,2.15
2023-03-26T06:12:14.651Z,1.80
2023-03-26T06:14:41.757Z,2.00
2023-03-26T06:17:15.580Z,1.50
2023-03-26T06:19:42.549Z,1.65
2023-03-26T06:22:09.497Z,1.83
2023-03-26T06:24:44.591Z,1.80
2023-03-26T06:27:11.673Z,1.65
2023-03-26T06:29:45.583Z,1.38
2023-03-26T06:32:19.506Z,1.50
2023-03-26T06:34:53.606Z,1.60
2023-03-26T06:37:20.645Z,1.80
2023-03-26T06:39:55.606Z,1.85
2023-03-26T06:45:16.598Z,1.88
2023-03-26T06:47:43.511Z,1.73
2023-03-26T06:50:17.640Z,1.70
2023-03-26T06:52:44.708Z,1.60
2023-03-26T06:55:19.577Z,1.80
2023-03-26T07:00:22.634Z,1.70
2023-03-26T07:02:49.680Z,1.60
2023-03-26T07:05:23.626Z,1.70
2023-03-26T07:07:50.609Z,1.50
2023-03-26T07:10:25.702Z,1.70
2023-03-26T07:12:53.735Z,1.70
2023-03-26T07:15:27.627Z,1.33
2023-03-26T07:17:54.737Z,1.80
2023-03-26T07:20:28.770Z,1.83
2023-03-26T07:22:56.801Z,1.53
2023-03-26T07:25:33.627Z,2.03
2023-03-26T07:28:07.267Z,1.67
2023-03-26T07:30:52.643Z,2.00
2023-03-26T07:36:04.603Z,1.75
2023-03-26T07:38:43.857Z,1.77
2023-03-26T07:41:24.611Z,2.03
2023-03-26T07:44:05.272Z,1.55
2023-03-26T07:46:40.604Z,1.40
2023-03-26T07:49:12.573Z,2.00
2023-03-26T07:51:46.661Z,1.50
2023-03-26T07:54:14.274Z,1.50
2023-03-26T07:56:58.705Z,1.60
2023-03-26T07:59:30.822Z,1.92
2023-03-26T08:02:48.672Z,1.60
2023-03-26T08:05:24.040Z,1.70
2023-03-26T08:08:08.623Z,1.67
2023-03-26T08:10:41.928Z,1.83
2023-03-26T08:13:19.670Z,2.05
2023-03-26T08:15:52.871Z,1.83
2023-03-26T08:18:32.315Z,1.70
2023-03-26T08:21:03.742Z,1.63
2023-03-26T08:23:50.892Z,1.85
2023-03-26T08:26:30.500Z,2.20
2023-03-26T08:29:09.032Z,1.80
2023-03-26T08:31:38.843Z,1.75
2023-03-26T08:34:06.211Z,1.58
2023-03-26T08:36:33.295Z,1.80
2023-03-26T08:39:00.420Z,2.00
2023-03-26T08:42:03.673Z,1.83
2023-03-26T08:45:02.834Z,1.88
2023-03-26T08:48:07.221Z,1.98
2023-03-26T08:51:00.000Z,1.60
2023-03-26T08:54:21.299Z,1.77
2023-03-26T08:56:56.447Z,1.73
2023-03-26T08:59:52.942Z,1.83
2023-03-26T09:02:55.888Z,1.70
2023-03-26T09:05:48.574Z,1.83
2023-03-26T09:08:53.756Z,1.80
2023-03-26T09:11:51.257Z,1.80
2023-03-26T09:14:38.746Z,1.50
2023-03-26T09:17:26.203Z,1.85
2023-03-26T09:20:22.611Z,1.90
2023-03-26T09:23:18.531Z,2.17
2023-03-26T09:26:01.542Z,2.20
2023-03-26T09:29:07.139Z,2.10
2023-03-26T09:32:03.272Z,1.85
2023-03-26T09:34:32.006Z,1.92
2023-03-26T09:37:18.064Z,2.08
2023-03-26T09:40:01.961Z,2.00
2023-03-26T09:42:42.823Z,2.20
2023-03-26T09:45:46.283Z,2.25
2023-03-26T09:48:28.868Z,2.10
2023-03-26T09:51:27.778Z,2.20
2023-03-26T09:54:12.898Z,2.22
2023-03-26T09:56:49.991Z,2.28
2023-03-26T09:59:36.251Z,2.45
2023-03-26T10:02:16.080Z,2.20
2023-03-26T10:05:03.427Z,2.15
2023-03-26T10:07:48.517Z,2.70
2023-03-26T10:10:23.344Z,2.50
2023-03-26T10:13:02.111Z,2.00
2023-03-26T10:15:59.824Z,2.25
2023-03-26T10:18:39.656Z,2.10
2023-03-26T10:21:13.333Z,2.28
2023-03-26T10:23:55.692Z,2.20
2023-03-26T10:26:38.228Z,2.13
2023-03-26T10:29:23.809Z,2.75
2023-03-26T10:31:56.493Z,2.58
2023-03-26T10:34:44.807Z,2.67
2023-03-26T10:37:21.866Z,3.08
2023-03-26T10:40:09.645Z,2.65
2023-03-26T10:43:12.500Z,2.53
2023-03-26T10:46:03.396Z,3.05
2023-03-26T10:49:00.330Z,2.58
2023-03-26T10:51:52.296Z,2.78
2023-03-26T10:54:46.547Z,2.63
2023-03-26T10:57:25.229Z,2.53
2023-03-26T10:59:54.095Z,3.63
2023-03-26T11:02:30.640Z,3.35
2023-03-26T11:05:30.636Z,3.65
2023-03-26T11:08:04.366Z,3.55
2023-03-26T11:10:45.732Z,3.20
2023-03-26T11:13:20.601Z,3.10
2023-03-26T11:18:24.964Z,3.83
2023-03-26T11:21:18.788Z,3.75
2023-03-26T11:24:04.819Z,3.67
2023-03-26T11:26:42.157Z,4.25
2023-03-26T11:29:37.256Z,4.13
2023-03-26T11:32:06.649Z,3.90
2023-03-26T11:34:38.491Z,3.58
2023-03-26T11:37:12.146Z,3.90
2023-03-26T11:39:48.458Z,3.70
2023-03-26T11:42:17.509Z,3.60
2023-03-26T11:44:50.126Z,3.25
2023-03-26T11:47:21.922Z,3.30
2023-03-26T11:49:53.340Z,2.83
2023-03-26T11:52:20.601Z,2.60
2023-03-26T11:54:47.573Z,2.72
2023-03-26T11:57:19.598Z,2.50
2023-03-26T11:59:57.314Z,2.90
2023-03-26T12:02:27.911Z,2.67
2023-03-26T12:05:16.016Z,2.58
2023-03-26T12:07:49.315Z,2.90
2023-03-26T12:10:25.591Z,3.17
2023-03-26T12:12:55.897Z,2.60
2023-03-26T12:15:23.059Z,2.45
2023-03-26T12:17:52.465Z,2.70
2023-03-26T12:20:32.685Z,3.03
2023-03-26T12:23:01.333Z,3.25
2023-03-26T12:25:30.034Z,2.67
2023-03-26T12:28:00.285Z,2.63
2023-03-26T12:30:29.350Z,2.47
2023-03-26T12:32:59.270Z,2.05
2023-03-26T12:35:29.930Z,1.92
2023-03-26T12:38:15.331Z,2.97
2023-03-26T12:40:42.776Z,2.92
2023-03-26T12:44:53.575Z,3.42
2023-03-26T12:47:56.293Z,2.40
2023-03-26T12:49:12.354Z,2.05
2023-03-26T12:51:48.110Z,2.60
2023-03-26T12:54:27.330Z,2.38
2023-03-26T13:00:02.753Z,2.22
2023-03-26T13:02:24.112Z,2.92
2023-03-26T13:02:46.725Z,2.25
2023-03-26T13:05:28.361Z,2.40
2023-03-26T13:08:16.316Z,1.90
2023-03-26T13:10:52.814Z,2.08
2023-03-26T13:13:50.345Z,2.40
2023-03-26T13:16:24.828Z,2.70
2023-03-26T13:18:56.159Z,2.65
2023-03-26T13:21:36.920Z,2.55
2023-03-26T13:24:14.208Z,3.20
2023-03-26T13:26:57.567Z,3.13
2023-03-26T13:29:34.877Z,2.55
2023-03-26T13:32:12.815Z,2.30
2023-03-26T13:34:57.830Z,1.85
2023-03-26T13:37:30.928Z,2.20
2023-03-26T13:40:12.127Z,2.88
2023-03-26T13:42:48.772Z,2.90
2023-03-26T13:45:32.664Z,2.58
2023-03-26T13:48:03.107Z,2.33
2023-03-26T13:50:34.420Z,2.70
2023-03-26T13:53:06.527Z,3.15
2023-03-26T13:55:40.496Z,2.85
2023-03-26T13:58:17.034Z,1.90
2023-03-26T14:00:51.996Z,2.35
2023-03-26T14:05:56.468Z,2.25
2023-03-26T14:08:27.737Z,1.90
2023-03-26T14:11:05.178Z,1.80
2023-03-26T14:13:39.567Z,2.17
2023-03-26T14:16:13.961Z,2.05
2023-03-26T14:18:49.157Z,2.45
2023-03-26T14:21:47.897Z,2.55
2023-03-26T14:24:36.882Z,2.72
2023-03-26T14:27:37.973Z,2.65
2023-03-26T14:30:41.181Z,3.22
2023-03-26T14:33:27.444Z,4.22
2023-03-26T14:36:01.484Z,4.22
2023-03-26T14:39:00.669Z,4.97
2023-03-26T14:41:33.754Z,4.68
2023-03-26T14:44:47.808Z,5.18
2023-03-26T14:47:20.289Z,5.32
2023-03-26T14:50:14.510Z,5.20
2023-03-26T14:52:47.551Z,5.50
2023-03-26T14:55:25.859Z,5.22
2023-03-26T14:58:26.942Z,4.60
2023-03-26T15:01:23.453Z,3.72
2023-03-26T15:04:32.849Z,3.13
2023-03-26T15:07:23.565Z,3.30
2023-03-26T15:10:26.891Z,3.17
2023-03-26T15:13:15.408Z,3.40
2023-03-26T15:16:19.843Z,3.50
2023-03-26T15:19:29.940Z,3.67
2023-03-26T15:22:28.517Z,4.07
2023-03-26T15:25:31.896Z,4.45
2023-03-26T15:28:27.238Z,4.32
2023-03-26T15:31:11.341Z,4.78
2023-03-26T15:34:14.981Z,4.50
2023-03-26T15:37:24.240Z,4.60
2023-03-26T15:40:34.257Z,4.68
2023-03-26T15:43:09.530Z,5.50
2023-03-26T15:45:42.424Z,5.40
2023-03-26T15:48:29.770Z,5.40
2023-03-26T15:51:06.621Z,6.03
2023-03-26T15:53:39.754Z,6.82
2023-03-26T15:56:30.381Z,6.57
2023-03-26T15:59:09.022Z,6.00
2023-03-26T16:01:48.171Z,6.28
2023-03-26T16:04:29.355Z,6.10
2023-03-26T16:07:00.433Z,5.97
2023-03-26T16:09:50.703Z,6.43
2023-03-26T16:12:37.836Z,6.65
2023-03-26T16:15:25.096Z,6.57
2023-03-26T16:18:25.342Z,6.78
2023-03-26T16:20:54.252Z,7.50
2023-03-26T16:23:29.095Z,8.07
2023-03-26T16:26:11.614Z,7.97
2023-03-26T16:29:07.300Z,7.50
2023-03-26T16:34:42.561Z,7.80
2023-03-26T16:37:38.889Z,8.25
2023-03-26T16:40:42.426Z,7.80
2023-03-26T16:43:26.453Z,7.78
2023-03-26T16:46:00.139Z,7.40
2023-03-26T16:48:35.246Z,8.20
2023-03-26T16:51:09.738Z,8.23
2023-03-26T16:53:45.341Z,7.95
2023-03-26T16:56:16.790Z,7.68
2023-03-26T16:58:54.522Z,7.20
2023-03-26T17:01:31.720Z,7.93
2023-03-26T17:04:04.023Z,6.90
2023-03-26T17:06:54.773Z,7.40
2023-03-26T17:09:31.736Z,7.57
2023-03-26T17:12:08.336Z,7.97
2023-03-26T17:14:51.943Z,7.90
2023-03-26T17:17:33.577Z,9.07
2023-03-26T17:20:08.884Z,9.13
2023-03-26T17:22:42.382Z,9.60
2023-03-26T17:25:22.641Z,8.38
2023-03-26T17:27:59.152Z,8.57
2023-03-26T17:30:56.211Z,7.75
2023-03-26T17:33:29.260Z,6.72
2023-03-26T17:36:15.535Z,5.30
2023-03-26T17:38:59.831Z,5.57
2023-03-26T17:41:49.947Z,6.05
2023-03-26T17:44:40.345Z,5.28
2023-03-26T17:47:17.999Z,5.05
2023-03-26T17:49:53.713Z,5.00
2023-03-26T17:52:25.350Z,5.15
2023-03-26T17:54:55.817Z,4.50
2023-03-26T17:57:30.381Z,4.57
2023-03-26T17:59:59.503Z,5.18
2023-03-26T18:02:36.817Z,5.50
2023-03-26T18:05:08.166Z,4.72
2023-03-26T18:08:04.708Z,4.82
2023-03-26T18:10:47.411Z,5.47
2023-03-26T18:13:31.371Z,5.10
2023-03-26T18:16:11.927Z,5.30
2023-03-26T18:18:48.101Z,4.85
2023-03-26T18:21:21.766Z,5.00
2023-03-26T18:23:50.175Z,5.25
2023-03-26T18:26:21.363Z,5.00
2023-03-26T18:28:53.014Z,5.53
2023-03-26T18:31:24.006Z,5.65
2023-03-26T18:33:57.702Z,4.38
2023-03-26T18:36:26.267Z,3.75
2023-03-26T18:38:58.621Z,4.32
2023-03-26T18:41:30.840Z,3.65
2023-03-26T18:44:01.726Z,4.85
2023-03-26T18:46:29.054Z,3.90
2023-03-26T18:48:58.336Z,3.95
2023-03-26T18:51:27.507Z,4.25
2023-03-26T18:53:56.635Z,4.22
2023-03-26T18:56:32.958Z,3.55
2023-03-26T18:59:04.881Z,4.43
2023-03-26T19:01:34.978Z,4.38
2023-03-26T19:04:07.060Z,4.28
2023-03-26T19:06:38.506Z,4.07
2023-03-26T19:09:19.592Z,4.60
2023-03-26T19:11:55.873Z,3.97
2023-03-26T19:14:23.746Z,4.35
2023-03-26T19:16:55.128Z,4.00
2023-03-26T19:19:28.932Z,4.60
2023-03-26T19:21:58.404Z,3.90
2023-03-26T19:24:27.367Z,4.30
2023-03-26T19:26:54.596Z,4.00
2023-03-26T19:29:27.050Z,3.70
2023-03-26T19:32:00.920Z,4.60
2023-03-26T19:34:33.193Z,4.38
2023-03-26T19:37:02.100Z,3.90
2023-03-26T19:39:38.756Z,4.13
2023-03-26T19:42:07.547Z,4.20
2023-03-26T19:44:37.789Z,4.28
2023-03-26T19:47:08.888Z,3.60
2023-03-26T19:49:53.786Z,4.68
2023-03-26T19:52:24.361Z,4.03
2023-03-26T19:54:59.691Z,4.50
2023-03-26T19:57:31.272Z,4.30
2023-03-26T19:59:58.610Z,4.13
2023-03-26T20:02:26.509Z,4.45
2023-03-26T20:04:56.595Z,3.92
2023-03-26T20:10:12.440Z,3.33
2023-03-26T20:12:39.456Z,3.58
2023-03-26T20:15:19.216Z,3.75
2023-03-26T20:17:47.108Z,3.55
2023-03-26T20:20:16.302Z,3.08
2023-03-26T20:22:44.462Z,3.35
2023-03-26T20:27:45.624Z,3.28
2023-03-26T20:30:14.038Z,3.60
2023-03-26T20:32:44.402Z,3.22
2023-03-26T20:35:17.101Z,2.95
2023-03-26T20:37:44.114Z,3.10
2023-03-26T20:40:11.985Z,2.70
2023-03-26T20:42:39.127Z,3.03
2023-03-26T20:45:14.968Z,2.78
2023-03-26T20:47:42.276Z,2.80
2023-03-26T20:50:12.947Z,2.10
2023-03-26T20:52:41.975Z,1.83
2023-03-26T20:55:12.552Z,2.22
2023-03-26T20:57:39.539Z,2.20
2023-03-26T21:00:10.501Z,1.67
2023-03-26T21:02:37.551Z,2.90
2023-03-26T21:05:05.251Z,1.60
2023-03-26T21:07:32.439Z,1.83
2023-03-26T21:10:02.237Z,2.10
2023-03-26T21:12:32.683Z,1.98
2023-03-26T21:15:00.498Z,2.17
2023-03-26T21:17:29.260Z,2.63
2023-03-26T21:19:56.856Z,2.55
2023-03-26T21:22:33.985Z,2.17
2023-03-26T21:25:15.661Z,2.17
2023-03-26T21:27:51.947Z,2.10
2023-03-26T21:30:20.342Z,2.45
2023-03-26T21:32:48.461Z,2.17
2023-03-26T21:35:16.684Z,2.05
2023-03-26T21:37:45.541Z,1.75
2023-03-26T21:40:16.253Z,2.08
2023-03-26T21:42:44.842Z,2.88
2023-03-26T21:45:12.842Z,2.25
2023-03-26T21:47:40.854Z,2.90
2023-03-26T21:50:09.669Z,2.33
2023-03-26T21:52:37.518Z,2.40
2023-03-26T21:55:05.882Z,2.72
2023-03-26T21:57:48.856Z,2.35
2023-03-26T22:00:18.191Z,2.22
2023-03-26T22:03:02.687Z,2.60
2023-03-26T22:05:38.308Z,2.78
2023-03-26T22:08:06.961Z,2.33
2023-03-26T22:10:34.075Z,2.70
2023-03-26T22:13:02.553Z,2.38
2023-03-26T22:15:29.661Z,2.22
2023-03-26T22:18:00.542Z,3.35
2023-03-26T22:20:27.600Z,2.63
2023-03-26T22:22:54.855Z,2.38
2023-03-26T22:25:22.862Z,2.20
2023-03-26T22:27:53.101Z,3.08
2023-03-26T22:30:21.901Z,2.25
2023-03-26T22:32:49.203Z,2.40
2023-03-26T22:35:17.108Z,1.98
2023-03-26T22:37:44.394Z,2.45
2023-03-26T22:40:11.897Z,2.95
2023-03-26T22:42:41.934Z,2.10
2023-03-26T22:45:09.985Z,2.20
2023-03-26T22:47:38.588Z,2.72
2023-03-26T22:50:07.505Z,2.40
2023-03-26T22:52:35.352Z,1.98
2023-03-26T22:55:02.590Z,2.30
2023-03-26T22:57:29.575Z,2.35
2023-03-26T22:59:56.755Z,2.65
2023-03-26T23:02:23.942Z,2.65
2023-03-26T23:04:52.497Z,2.80
2023-03-26T23:07:19.599Z,2.25
2023-03-26T23:09:46.704Z,2.53
2023-03-26T23:12:13.685Z,2.60
2023-03-26T23:14:40.772Z,2.13
2023-03-26T23:17:07.777Z,1.90
2023-03-26T23:19:34.923Z,2.13
2023-03-26T23:22:03.542Z,2.00
2023-03-26T23:24:30.574Z,2.10
2023-03-26T23:26:57.704Z,2.50
2023-03-26T23:29:24.772Z,1.92
2023-03-26T23:31:51.810Z,2.38
2023-03-26T23:34:19.117Z,2.40
2023-03-26T23:36:46.344Z,2.30
2023-03-26T23:39:14.947Z,2.38
2023-03-26T23:41:42.019Z,2.13
2023-03-26T23:44:09.141Z,2.15
2023-03-26T23:46:36.293Z,1.80
2023-03-26T23:49:03.447Z,2.13
2023-03-26T23:51:31.067Z,2.17
2023-03-26T23:53:58.393Z,2.35
2023-03-26T23:56:27.206Z,2.47
2023-03-26T23:58:54.409Z,2.22
